KHAO

Details ICAO KHAO
Name BUTLER CO RGNL
Region United States
Timezone America/New_York (UTC-4.0)
Plans Departing 17
Arriving 13
Stats Elevation 633 ft / 193 m (AMSL)
Location 39.363760° -84.521945°
Runways 1
Magnetic Variation 5.918° W
Sunrise 2018-05-21 10:20:57 UTC / 2018-05-21 06:20:57 Local
Sunset 2018-05-22 00:51:17 UTC / 2018-05-21 20:51:17 Local
Advertisement - Login to hide

Runways

ID Width Length Bearing (true) Bearing (mag) Surface Threshold Offset Overrun Length
11 98 ft / 30 m 5,490 ft / 1,673 m 110.45° 116.37° Asphalt 0 ft / 0 m 0 ft / 0 m
29 98 ft / 30 m 5,490 ft / 1,673 m 290.46° 296.38° Asphalt 0 ft / 0 m 0 ft / 0 m

Map

Weather


0- 5 10 15 20 25 30 35+ Temperature / ° C

Clouds and Precipitation
Forecast for 2018-05-21 12:00 UTC. Updated a minute ago

Ground ~20,000 ft ~40,000 ft Winds

METAR

KHAO 210853Z AUTO 00000KT 10SM CLR 18/17 A3011 RMK AO2 SLP192 T01830167 53001

TAF

Not found

Frequencies

Recorded 121.42 MHz ASOS
Clearance 126.25 MHz CLNC DEL
Unicom 123.05 MHz CTAF/UNICOM
Approach 121.00 MHz CINCINNATI APP/DEP
Warning: Do not use this data for real-world aviation or navigation. No guarantee of current accuracy is given.